createdAt,value
2018-06-27T00:01:55.047Z,14.80
2018-06-27T00:04:23.627Z,14.77
2018-06-27T00:06:52.026Z,14.67
2018-06-27T00:09:20.305Z,14.59
2018-06-27T00:11:48.615Z,14.58
2018-06-27T00:14:16.936Z,14.72
2018-06-27T00:16:45.284Z,14.64
2018-06-27T00:19:13.631Z,14.51
2018-06-27T00:21:41.974Z,14.50
2018-06-27T00:24:10.255Z,14.60
2018-06-27T00:26:38.608Z,14.49
2018-06-27T00:29:06.902Z,14.42
2018-06-27T00:31:35.563Z,14.32
2018-06-27T00:34:06.803Z,14.42
2018-06-27T00:36:35.115Z,14.17
2018-06-27T00:39:03.978Z,14.20
2018-06-27T00:41:32.414Z,14.19
2018-06-27T00:44:00.682Z,14.11
2018-06-27T00:46:29.008Z,14.20
2018-06-27T00:48:57.324Z,14.17
2018-06-27T00:51:25.785Z,14.12
2018-06-27T00:53:59.485Z,14.25
2018-06-27T00:56:27.870Z,14.14
2018-06-27T00:58:56.298Z,14.21
2018-06-27T01:01:24.609Z,14.29
2018-06-27T01:03:52.896Z,14.42
2018-06-27T01:06:21.214Z,14.60
2018-06-27T01:08:49.662Z,14.46
2018-06-27T01:11:18.064Z,14.46
2018-06-27T01:13:46.368Z,14.13
2018-06-27T01:16:14.730Z,14.09
2018-06-27T01:18:43.077Z,14.14
2018-06-27T01:21:11.402Z,14.12
2018-06-27T01:23:39.717Z,14.12
2018-06-27T01:26:08.254Z,14.12
2018-06-27T01:28:36.534Z,14.28
2018-06-27T01:31:04.899Z,14.21
2018-06-27T01:33:33.178Z,14.04
2018-06-27T01:36:01.597Z,14.11
2018-06-27T01:38:29.886Z,14.00
2018-06-27T01:40:58.269Z,14.01
2018-06-27T01:43:26.798Z,13.97
2018-06-27T01:45:55.144Z,13.75
2018-06-27T01:48:23.439Z,13.79
2018-06-27T01:50:51.962Z,13.82
2018-06-27T01:53:20.326Z,13.91
2018-06-27T01:55:48.725Z,14.02
2018-06-27T01:58:17.173Z,13.94
2018-06-27T02:00:45.449Z,13.78
2018-06-27T02:03:13.771Z,13.70
2018-06-27T02:05:42.055Z,13.89
2018-06-27T02:08:10.551Z,13.89
2018-06-27T02:10:38.832Z,13.89
2018-06-27T02:13:08.659Z,13.90
2018-06-27T02:15:36.948Z,13.84
2018-06-27T02:18:05.386Z,13.83
2018-06-27T02:20:33.662Z,13.71
2018-06-27T02:23:11.585Z,13.68
2018-06-27T02:25:40.374Z,13.71
2018-06-27T02:28:09.787Z,13.74
2018-06-27T02:30:38.259Z,13.63
2018-06-27T02:33:06.551Z,13.74
2018-06-27T02:35:34.830Z,13.77
2018-06-27T02:38:03.168Z,13.80
2018-06-27T02:40:31.476Z,13.77
2018-06-27T02:42:59.789Z,13.65
2018-06-27T02:45:28.069Z,13.65
2018-06-27T02:47:56.490Z,13.66
2018-06-27T02:50:24.771Z,13.71
2018-06-27T02:52:53.099Z,13.69
2018-06-27T02:55:21.443Z,13.92
2018-06-27T02:57:49.882Z,13.87
2018-06-27T03:00:18.264Z,13.97
2018-06-27T03:02:47.294Z,13.88
2018-06-27T03:05:15.742Z,13.82
2018-06-27T03:07:44.670Z,13.87
2018-06-27T03:10:12.986Z,13.87
2018-06-27T03:12:41.334Z,13.84
2018-06-27T03:15:10.582Z,13.82
2018-06-27T03:17:39.094Z,13.85
2018-06-27T03:20:07.374Z,13.80
2018-06-27T03:22:35.742Z,13.78
2018-06-27T03:25:04.726Z,13.90
2018-06-27T03:27:33.026Z,13.88
2018-06-27T03:30:01.394Z,13.87
2018-06-27T03:32:29.735Z,13.80
2018-06-27T03:34:58.070Z,13.81
2018-06-27T03:37:26.594Z,13.95
2018-06-27T03:39:54.912Z,14.13
2018-06-27T03:42:23.265Z,14.15
2018-06-27T03:44:51.541Z,14.05
2018-06-27T03:47:19.879Z,14.02
2018-06-27T03:49:48.338Z,14.01
2018-06-27T03:52:16.617Z,13.94
2018-06-27T03:54:44.923Z,13.93
2018-06-27T03:57:16.708Z,13.88
2018-06-27T03:59:45.051Z,13.99
2018-06-27T04:02:13.339Z,13.91
2018-06-27T04:04:41.670Z,13.90
2018-06-27T04:07:12.902Z,13.83
2018-06-27T04:09:41.215Z,13.81
2018-06-27T04:12:09.514Z,13.82
2018-06-27T04:14:37.881Z,13.85
2018-06-27T04:17:06.326Z,13.98
2018-06-27T04:19:34.660Z,13.98
2018-06-27T04:22:02.964Z,13.96
2018-06-27T04:24:31.307Z,14.23
2018-06-27T04:26:59.607Z,14.25
2018-06-27T04:29:27.921Z,14.06
2018-06-27T04:31:56.211Z,14.20
2018-06-27T04:34:24.558Z,14.16
2018-06-27T04:36:52.858Z,14.21
2018-06-27T04:39:21.191Z,14.07
2018-06-27T04:41:49.482Z,14.28
2018-06-27T04:44:18.317Z,14.31
2018-06-27T04:46:46.603Z,14.00
2018-06-27T04:49:14.923Z,14.01
2018-06-27T04:51:43.215Z,14.00
2018-06-27T04:54:11.534Z,14.10
2018-06-27T04:56:39.808Z,14.07
2018-06-27T04:59:08.154Z,14.18
2018-06-27T05:01:36.440Z,14.15
2018-06-27T05:04:04.768Z,14.14
2018-06-27T05:06:33.051Z,14.35
2018-06-27T05:09:01.365Z,14.44
2018-06-27T05:11:29.658Z,14.19
2018-06-27T05:19:46.355Z,14.39
2018-06-27T05:22:14.993Z,14.63
2018-06-27T05:24:43.826Z,14.49
2018-06-27T05:27:12.206Z,14.59
2018-06-27T05:29:40.543Z,14.75
2018-06-27T05:32:08.839Z,14.92
2018-06-27T05:34:38.743Z,15.00
2018-06-27T05:37:07.102Z,15.08
2018-06-27T05:39:35.413Z,15.26
2018-06-27T05:42:03.711Z,15.26
2018-06-27T05:44:32.029Z,15.43
2018-06-27T05:47:00.309Z,15.39
2018-06-27T05:49:28.629Z,15.25
2018-06-27T05:51:56.969Z,15.17
2018-06-27T05:54:25.562Z,15.20
2018-06-27T08:21:56.706Z,17.87
2018-06-27T08:24:24.997Z,17.93
2018-06-27T08:26:53.391Z,18.04
2018-06-27T08:29:21.710Z,18.22
2018-06-27T08:31:50.118Z,18.11
2018-06-27T08:34:18.678Z,18.25
2018-06-27T08:36:47.083Z,18.42
2018-06-27T08:39:15.359Z,18.52
2018-06-27T08:41:43.750Z,18.59
2018-06-27T08:44:12.026Z,18.64
2018-06-27T08:46:40.367Z,18.76
2018-06-27T08:49:08.667Z,18.92
2018-06-27T08:51:36.966Z,19.00
2018-06-27T08:54:05.293Z,19.16
2018-06-27T08:56:33.685Z,19.17
2018-06-27T08:59:02.028Z,19.29
2018-06-27T09:01:30.380Z,19.35
2018-06-27T09:03:58.642Z,19.38
2018-06-27T09:06:26.963Z,19.53
2018-06-27T09:08:55.251Z,19.33
2018-06-27T09:11:23.621Z,19.24
2018-06-27T09:13:52.088Z,19.54
2018-06-27T09:16:20.347Z,19.65
2018-06-27T09:18:48.633Z,19.66
2018-06-27T09:21:17.003Z,19.60
2018-06-27T09:23:45.313Z,19.87
2018-06-27T09:26:13.671Z,19.91
2018-06-27T09:28:41.974Z,20.03
2018-06-27T09:31:10.293Z,20.08
2018-06-27T09:33:38.562Z,20.08
2018-06-27T09:36:06.830Z,19.93
2018-06-27T09:38:35.149Z,20.20
2018-06-27T09:41:03.419Z,19.70
2018-06-27T09:43:31.719Z,20.09
2018-06-27T09:45:59.987Z,20.34
2018-06-27T09:48:28.274Z,20.23
2018-06-27T09:50:56.620Z,19.99
2018-06-27T09:53:24.945Z,20.50
2018-06-27T09:55:53.219Z,20.93
2018-06-27T09:58:21.835Z,21.19
2018-06-27T10:00:50.120Z,21.56
2018-06-27T10:03:18.456Z,21.79
2018-06-27T10:05:46.726Z,21.72
2018-06-27T10:08:15.067Z,21.85
2018-06-27T10:10:43.470Z,21.93
2018-06-27T10:13:11.971Z,21.87
2018-06-27T10:15:40.502Z,21.87
2018-06-27T10:18:08.999Z,22.03
2018-06-27T10:20:37.335Z,22.00
2018-06-27T10:23:06.678Z,21.87
2018-06-27T10:25:35.196Z,21.88
2018-06-27T10:28:03.742Z,22.35
2018-06-27T10:30:32.052Z,22.24
2018-06-27T10:33:00.434Z,22.41
2018-06-27T10:35:28.867Z,22.41
2018-06-27T10:37:57.311Z,22.46
2018-06-27T10:40:25.843Z,22.61
2018-06-27T10:42:54.378Z,22.43
2018-06-27T10:45:22.674Z,22.64
2018-06-27T10:47:50.978Z,22.65
2018-06-27T10:50:19.338Z,22.26
2018-06-27T10:52:47.695Z,22.39
2018-06-27T10:55:21.681Z,22.10
2018-06-27T10:57:50.003Z,22.13
2018-06-27T11:00:18.341Z,22.70
2018-06-27T11:02:46.658Z,22.97
2018-06-27T11:05:15.001Z,22.76
2018-06-27T11:07:43.761Z,22.55
2018-06-27T11:10:12.150Z,22.36
2018-06-27T11:12:40.549Z,22.53
2018-06-27T11:15:09.184Z,22.73
2018-06-27T11:17:37.523Z,23.04
2018-06-27T11:20:05.965Z,23.00
2018-06-27T11:22:34.235Z,22.57
2018-06-27T11:25:02.579Z,22.46
2018-06-27T11:27:30.880Z,22.73
2018-06-27T11:29:59.233Z,23.02
2018-06-27T11:32:27.538Z,23.33
2018-06-27T11:34:55.967Z,22.89
2018-06-27T11:37:24.507Z,22.46
2018-06-27T11:39:52.838Z,22.23
2018-06-27T11:42:21.098Z,21.85
2018-06-27T11:44:49.399Z,21.75
2018-06-27T11:47:17.674Z,21.80
2018-06-27T11:49:45.974Z,22.01
2018-06-27T11:52:14.286Z,22.62
2018-06-27T11:54:42.602Z,22.90
2018-06-27T11:57:11.194Z,23.27
2018-06-27T11:59:39.668Z,23.35
2018-06-27T12:02:07.986Z,23.48
2018-06-27T12:04:36.432Z,23.25
2018-06-27T12:07:04.815Z,23.15
2018-06-27T12:09:33.259Z,22.56
2018-06-27T12:12:01.559Z,22.50
2018-06-27T12:14:29.957Z,22.66
2018-06-27T12:16:58.256Z,22.24
2018-06-27T12:19:26.570Z,22.41
2018-06-27T12:21:54.859Z,22.86
2018-06-27T12:24:23.326Z,23.30
2018-06-27T12:26:52.322Z,23.23
2018-06-27T12:29:20.749Z,22.45
2018-06-27T12:31:49.015Z,22.57
2018-06-27T12:34:17.538Z,22.86
2018-06-27T12:36:46.227Z,23.00
2018-06-27T12:39:14.782Z,23.09
2018-06-27T12:41:43.093Z,22.16
2018-06-27T12:44:11.468Z,22.62
2018-06-27T12:46:39.865Z,22.76
2018-06-27T12:49:08.290Z,22.69
2018-06-27T12:51:36.701Z,22.86
2018-06-27T12:54:04.969Z,22.81
2018-06-27T12:56:33.282Z,22.89
2018-06-27T12:59:01.724Z,22.89
2018-06-27T13:01:30.063Z,22.76
2018-06-27T13:03:58.326Z,22.48
2018-06-27T13:06:26.735Z,22.51
2018-06-27T13:08:55.091Z,22.69
2018-06-27T13:11:23.412Z,22.59
2018-06-27T13:13:51.682Z,22.35
2018-06-27T13:16:20.019Z,22.79
2018-06-27T13:18:48.444Z,23.28
2018-06-27T13:21:16.738Z,23.40
2018-06-27T13:23:45.025Z,23.58
2018-06-27T13:26:13.355Z,23.63
2018-06-27T13:28:41.669Z,23.91
2018-06-27T13:31:10.107Z,23.67
2018-06-27T13:33:38.441Z,23.05
2018-06-27T13:36:06.820Z,22.91
2018-06-27T13:38:35.119Z,22.58
2018-06-27T13:41:03.416Z,22.98
2018-06-27T13:43:31.746Z,23.34
2018-06-27T13:46:00.071Z,23.57
2018-06-27T13:48:28.371Z,23.51
2018-06-27T13:50:56.706Z,24.09
2018-06-27T13:53:24.955Z,24.11
2018-06-27T13:55:53.278Z,24.09
2018-06-27T13:58:21.568Z,23.99
2018-06-27T14:00:49.934Z,23.91
2018-06-27T14:03:18.917Z,24.20
2018-06-27T14:05:47.228Z,24.06
2018-06-27T14:08:15.575Z,23.49
2018-06-27T14:10:43.914Z,23.42
2018-06-27T14:13:12.218Z,23.63
2018-06-27T14:15:40.566Z,23.72
2018-06-27T14:18:09.706Z,23.92
2018-06-27T14:20:38.022Z,24.19
2018-06-27T14:23:06.396Z,24.54
2018-06-27T14:25:34.773Z,24.71
2018-06-27T14:28:03.026Z,24.40
2018-06-27T14:30:31.401Z,24.10
2018-06-27T14:32:59.815Z,23.75
2018-06-27T14:35:28.137Z,23.66
2018-06-27T14:37:56.523Z,23.48
2018-06-27T14:40:24.790Z,23.50
2018-06-27T14:42:53.115Z,23.84
2018-06-27T14:45:21.373Z,23.42
2018-06-27T14:47:49.699Z,23.76
2018-06-27T14:50:17.966Z,23.60
2018-06-27T14:52:46.274Z,23.99
2018-06-27T14:55:14.571Z,23.97
2018-06-27T14:57:42.875Z,24.29
2018-06-27T15:00:11.155Z,23.99
2018-06-27T15:02:39.482Z,24.19
2018-06-27T15:05:07.759Z,24.41
2018-06-27T15:07:36.107Z,24.79
2018-06-27T15:10:04.399Z,24.37
2018-06-27T15:12:32.695Z,24.21
2018-06-27T15:15:00.970Z,23.92
2018-06-27T15:17:29.283Z,23.49
2018-06-27T15:19:57.785Z,23.69
2018-06-27T15:22:26.175Z,23.54
2018-06-27T15:24:54.511Z,23.61
2018-06-27T15:27:22.818Z,23.60
2018-06-27T15:29:51.111Z,23.45
2018-06-27T15:32:19.436Z,23.51
2018-06-27T15:34:47.873Z,23.83
2018-06-27T15:37:16.111Z,23.94
2018-06-27T15:39:44.405Z,23.97
2018-06-27T15:42:12.713Z,24.27
2018-06-27T15:44:41.003Z,24.25
2018-06-27T15:47:09.306Z,24.35
2018-06-27T15:49:37.574Z,24.60
2018-06-27T15:52:05.946Z,24.01
2018-06-27T15:54:34.233Z,24.47
2018-06-27T15:57:02.550Z,24.44
2018-06-27T15:59:33.353Z,23.88
2018-06-27T16:02:01.668Z,23.71
2018-06-27T16:04:29.984Z,23.53
2018-06-27T16:06:58.622Z,23.64
2018-06-27T16:09:27.009Z,23.48
2018-06-27T16:11:55.585Z,23.33
2018-06-27T16:14:23.751Z,23.22
2018-06-27T16:16:52.211Z,23.41
2018-06-27T16:19:20.542Z,23.51
2018-06-27T16:21:49.155Z,23.46
2018-06-27T16:24:18.739Z,23.18
2018-06-27T16:26:47.328Z,23.15
2018-06-27T16:29:15.637Z,23.13
2018-06-27T16:31:43.945Z,22.88
2018-06-27T16:34:12.522Z,22.99
2018-06-27T16:36:40.795Z,23.05
2018-06-27T16:39:10.145Z,23.25
2018-06-27T16:41:38.631Z,23.47
2018-06-27T16:44:06.976Z,23.47
2018-06-27T16:46:35.279Z,23.62
2018-06-27T16:49:03.801Z,23.62
2018-06-27T16:51:32.317Z,23.56
2018-06-27T16:54:00.502Z,23.71
2018-06-27T16:56:28.839Z,23.84
2018-06-27T16:58:57.155Z,24.08
2018-06-27T17:01:25.590Z,24.21
2018-06-27T17:03:53.826Z,24.12
2018-06-27T17:06:22.214Z,23.87
2018-06-27T17:08:50.559Z,23.79
2018-06-27T17:11:18.916Z,24.00
2018-06-27T17:13:47.210Z,23.76
2018-06-27T17:16:15.510Z,23.48
2018-06-27T17:18:56.508Z,23.28
2018-06-27T17:21:24.945Z,23.04
2018-06-27T17:23:53.305Z,22.81
2018-06-27T17:26:21.807Z,22.69
2018-06-27T17:28:50.175Z,22.62
2018-06-27T17:31:18.504Z,22.51
2018-06-27T17:33:46.935Z,22.33
2018-06-27T18:05:01.986Z,22.71
2018-06-27T18:07:30.426Z,22.39
2018-06-27T18:09:58.711Z,22.56
2018-06-27T18:12:26.961Z,22.70
2018-06-27T18:14:57.723Z,22.61
2018-06-27T18:17:29.283Z,22.53
2018-06-27T18:20:00.580Z,22.48
2018-06-27T18:22:29.075Z,22.55
2018-06-27T18:24:57.398Z,22.67
2018-06-27T18:27:25.650Z,22.60
2018-06-27T18:29:54.851Z,22.41
2018-06-27T18:32:23.646Z,22.36
2018-06-27T18:34:53.056Z,22.10
2018-06-27T18:37:21.326Z,22.16
2018-06-27T18:39:49.670Z,22.04
2018-06-27T18:42:17.943Z,22.01
2018-06-27T18:44:46.250Z,22.14
2018-06-27T18:47:20.841Z,21.96
2018-06-27T18:49:49.131Z,21.80
2018-06-27T18:52:17.447Z,21.66
2018-06-27T18:54:45.776Z,20.58
2018-06-27T18:57:14.099Z,20.00
2018-06-27T18:59:42.391Z,19.57
2018-06-27T19:02:12.231Z,19.40
2018-06-27T19:04:40.550Z,19.38
2018-06-27T19:07:08.901Z,19.25
2018-06-27T19:09:37.183Z,19.04
2018-06-27T19:12:05.454Z,18.61
2018-06-27T19:14:33.731Z,18.36
2018-06-27T19:17:01.975Z,18.31
2018-06-27T19:19:30.329Z,17.92
2018-06-27T19:21:58.578Z,17.86
2018-06-27T19:24:26.854Z,17.60
2018-06-27T19:26:55.110Z,17.24
2018-06-27T19:29:23.409Z,17.48
2018-06-27T19:31:51.788Z,17.29
2018-06-27T19:34:20.107Z,17.32
2018-06-27T19:36:48.367Z,17.12
2018-06-27T19:39:17.943Z,16.91
2018-06-27T19:41:46.215Z,16.97
2018-06-27T19:44:14.652Z,16.84
2018-06-27T19:46:43.051Z,16.79
2018-06-27T19:49:11.346Z,16.78
2018-06-27T19:51:39.656Z,16.58
2018-06-27T19:54:08.199Z,16.32
2018-06-27T19:56:36.481Z,16.28
2018-06-27T19:59:04.974Z,16.39
2018-06-27T20:01:33.262Z,16.30
2018-06-27T20:04:01.723Z,16.07
2018-06-27T20:06:29.977Z,15.90
2018-06-27T20:08:58.353Z,15.76
2018-06-27T20:11:26.629Z,15.73
2018-06-27T20:13:54.963Z,15.68
2018-06-27T20:16:23.371Z,15.70
2018-06-27T20:18:51.666Z,15.53
2018-06-27T20:21:19.979Z,15.45
2018-06-27T20:23:48.213Z,15.49
2018-06-27T20:26:16.526Z,15.46
2018-06-27T20:28:44.869Z,15.47
2018-06-27T20:31:13.249Z,15.49
2018-06-27T20:33:41.495Z,15.46
2018-06-27T20:36:09.782Z,15.48
2018-06-27T20:38:38.178Z,15.51
2018-06-27T20:41:06.473Z,15.42
2018-06-27T20:43:34.732Z,15.17
2018-06-27T20:46:03.037Z,15.27
2018-06-27T20:48:31.315Z,15.41
2018-06-27T20:50:59.599Z,15.42
2018-06-27T20:53:27.899Z,15.33
2018-06-27T20:55:56.210Z,15.19
2018-06-27T20:58:24.473Z,15.13
2018-06-27T21:00:52.774Z,15.04
2018-06-27T21:03:21.070Z,14.66
2018-06-27T21:05:49.352Z,14.62
2018-06-27T21:08:17.619Z,14.81
2018-06-27T21:10:45.962Z,15.01
2018-06-27T21:13:14.252Z,14.95
2018-06-27T21:15:42.636Z,14.86
2018-06-27T21:18:10.904Z,14.66
2018-06-27T21:20:39.233Z,14.67
2018-06-27T21:23:07.606Z,14.34
2018-06-27T21:25:35.923Z,14.39
2018-06-27T21:28:04.194Z,14.10
2018-06-27T21:30:32.551Z,14.30
2018-06-27T21:33:00.869Z,14.18
2018-06-27T21:35:29.177Z,14.30
2018-06-27T21:37:57.435Z,14.01
2018-06-27T21:40:25.764Z,13.92
2018-06-27T21:42:54.084Z,14.02
2018-06-27T21:45:22.375Z,13.95
2018-06-27T21:47:50.722Z,13.96
2018-06-27T21:50:19.074Z,14.00
2018-06-27T21:52:47.413Z,13.87
2018-06-27T21:55:15.712Z,13.77
2018-06-27T21:57:43.990Z,13.98
2018-06-27T22:00:13.135Z,14.01
2018-06-27T22:02:41.480Z,13.80
2018-06-27T22:05:09.829Z,13.97
2018-06-27T22:07:38.123Z,13.87
2018-06-27T22:10:06.403Z,13.91
2018-06-27T22:12:34.715Z,13.66
2018-06-27T22:15:02.999Z,13.72
2018-06-27T22:17:31.313Z,13.58
2018-06-27T22:19:59.622Z,13.38
2018-06-27T22:22:27.945Z,13.14
2018-06-27T22:24:56.211Z,13.13
2018-06-27T22:27:24.504Z,13.38
2018-06-27T22:29:52.755Z,13.23
2018-06-27T22:32:21.122Z,13.22
2018-06-27T22:34:49.366Z,13.49
2018-06-27T22:37:17.644Z,13.56
2018-06-27T22:39:45.912Z,13.62
2018-06-27T22:42:14.237Z,13.62
2018-06-27T22:44:42.613Z,13.46
2018-06-27T22:47:10.898Z,13.55
2018-06-27T22:49:39.170Z,13.29
2018-06-27T22:52:07.462Z,13.17
2018-06-27T22:54:35.719Z,13.24
2018-06-27T22:57:04.054Z,13.45
2018-06-27T22:59:32.319Z,13.39
2018-06-27T23:02:00.588Z,13.23
2018-06-27T23:04:28.826Z,13.18
2018-06-27T23:06:57.167Z,13.04
2018-06-27T23:09:25.497Z,12.89
2018-06-27T23:11:53.807Z,12.98
2018-06-27T23:14:22.300Z,12.87
2018-06-27T23:16:50.630Z,12.89
2018-06-27T23:19:19.007Z,13.05
2018-06-27T23:21:47.303Z,13.09
2018-06-27T23:24:15.675Z,13.00
2018-06-27T23:26:44.071Z,12.97
2018-06-27T23:29:12.383Z,13.07
2018-06-27T23:31:40.662Z,13.14
2018-06-27T23:34:08.961Z,12.92
2018-06-27T23:36:37.279Z,12.80
2018-06-27T23:39:08.531Z,12.69
2018-06-27T23:41:36.823Z,12.57
2018-06-27T23:44:05.134Z,12.52
2018-06-27T23:46:33.451Z,12.68
2018-06-27T23:49:01.746Z,12.89
2018-06-27T23:51:30.094Z,12.72
2018-06-27T23:53:58.334Z,12.64
2018-06-27T23:56:26.583Z,12.62
2018-06-27T23:58:54.959Z,12.71
